Time;durP1;ratioP1;P1;durP2;ratioP2;P2;SDS_P1;SDS_P2;PMS_P1;PMS_P2;Temp;Humidity;BMP_temperature;BMP_pressure;BME280_temperature;BME280_humidity;BME280_pressure;Samples;Min_cycle;Max_cycle;Signal;HPM_P1;HPM_P2
2022/10/20 00:01:22;;;;;;;10.77;5.63;;;7.10;99.90;;;;;;4938426;29;20046;-77
2022/10/20 00:03:49;;;;;;;9.65;5.43;;;7.10;99.90;;;;;;4920857;29;20051;-77
2022/10/20 00:06:23;;;;;;;9.60;5.50;;;7.10;99.90;;;;;;4938679;29;20126;-77
2022/10/20 00:08:49;;;;;;;8.70;5.20;;;7.10;99.90;;;;;;4938627;29;20044;-77
2022/10/20 00:11:17;;;;;;;12.63;5.63;;;7.10;99.90;;;;;;4954310;29;20051;-77
2022/10/20 00:13:46;;;;;;;12.05;5.35;;;7.10;99.90;;;;;;4937906;29;20039;-77
2022/10/20 00:16:13;;;;;;;9.90;5.60;;;7.00;99.90;;;;;;4937939;29;20043;-77
2022/10/20 00:18:39;;;;;;;11.23;5.30;;;7.00;99.90;;;;;;4938449;29;20050;-77
2022/10/20 00:21:11;;;;;;;12.18;5.68;;;7.00;99.90;;;;;;4922098;29;20690;-77
2022/10/20 00:23:37;;;;;;;12.27;5.30;;;7.00;99.90;;;;;;4938674;29;20560;-77
2022/10/20 00:26:12;;;;;;;11.02;5.75;;;7.10;99.90;;;;;;4920433;29;20047;-77
2022/10/20 00:28:38;;;;;;;10.90;5.57;;;7.10;99.90;;;;;;4938053;29;20047;-77
2022/10/20 00:31:05;;;;;;;12.32;5.40;;;7.10;99.90;;;;;;4937983;29;20130;-77
2022/10/20 00:33:32;;;;;;;10.45;6.10;;;7.10;99.90;;;;;;4922452;29;20044;-77
2022/10/20 00:35:59;;;;;;;11.05;5.78;;;7.10;99.90;;;;;;4918146;29;20052;-77
2022/10/20 00:38:25;;;;;;;12.75;5.57;;;7.10;99.90;;;;;;4908931;29;20043;-77
2022/10/20 00:40:51;;;;;;;12.30;5.75;;;7.00;99.90;;;;;;4930165;28;20734;-77
2022/10/20 00:43:17;;;;;;;9.90;5.68;;;7.10;99.90;;;;;;4949744;29;20051;-77
2022/10/20 00:45:48;;;;;;;12.93;5.78;;;6.90;99.90;;;;;;4945949;29;20097;-77
2022/10/20 00:48:19;;;;;;;9.40;5.63;;;7.00;99.90;;;;;;4937520;29;20047;-77
2022/10/20 00:50:49;;;;;;;10.65;5.60;;;6.90;99.90;;;;;;4937733;29;20058;-77
2022/10/20 00:53:20;;;;;;;13.65;5.68;;;6.90;99.90;;;;;;4938259;29;20505;-77
2022/10/20 00:55:49;;;;;;;10.95;5.40;;;6.90;99.90;;;;;;4921823;29;20486;-77
2022/10/20 00:58:15;;;;;;;11.40;5.93;;;6.90;99.90;;;;;;4937147;29;20039;-77
2022/10/20 01:00:43;;;;;;;11.43;6.10;;;6.90;99.90;;;;;;4921573;29;20481;-77
2022/10/20 01:03:15;;;;;;;14.63;6.22;;;6.90;99.90;;;;;;4921512;29;20094;-77
2022/10/20 01:05:41;;;;;;;9.63;5.60;;;6.90;99.90;;;;;;4937773;29;20047;-77
2022/10/20 01:08:07;;;;;;;11.10;5.70;;;6.90;99.90;;;;;;4934094;29;20065;-77
2022/10/20 01:10:46;;;;;;;12.32;6.03;;;6.80;99.90;;;;;;4943576;29;20482;-77
2022/10/20 01:13:27;;;;;;;12.38;6.18;;;6.80;99.90;;;;;;4937102;29;20039;-77
2022/10/20 01:16:23;;;;;;;12.63;5.68;;;6.80;99.90;;;;;;4936559;29;20106;-77
2022/10/20 01:19:10;;;;;;;10.68;6.15;;;6.70;99.90;;;;;;4953625;29;20463;-77
2022/10/20 01:22:14;;;;;;;9.95;5.57;;;6.70;99.90;;;;;;4937055;29;20039;-77
2022/10/20 01:24:52;;;;;;;12.75;6.60;;;6.70;99.90;;;;;;4937468;29;20035;-77
2022/10/20 01:27:26;;;;;;;11.15;5.63;;;6.60;99.90;;;;;;4925017;29;20485;-77
2022/10/20 01:30:06;;;;;;;13.65;6.60;;;6.50;99.90;;;;;;4923674;29;20078;-77
2022/10/20 01:32:36;;;;;;;15.02;6.25;;;6.50;99.90;;;;;;4949295;29;20042;-77
2022/10/20 01:35:13;;;;;;;12.57;6.18;;;6.50;99.90;;;;;;4937271;29;20043;-77
2022/10/20 01:37:51;;;;;;;11.70;6.43;;;6.50;99.90;;;;;;4937602;29;20553;-77
2022/10/20 01:40:23;;;;;;;12.50;6.47;;;6.50;99.90;;;;;;4937058;29;20046;-77
2022/10/20 01:42:51;;;;;;;9.80;6.18;;;6.50;99.90;;;;;;4936499;29;20055;-77
2022/10/20 01:45:19;;;;;;;11.23;6.20;;;6.50;99.90;;;;;;4937563;29;20573;-77
2022/10/20 01:47:47;;;;;;;10.82;6.43;;;6.50;99.90;;;;;;4938373;29;20121;-77
2022/10/20 01:50:15;;;;;;;11.05;6.43;;;6.50;99.90;;;;;;4941064;29;20046;-77
2022/10/20 01:52:41;;;;;;;11.52;6.50;;;6.50;99.90;;;;;;4940519;29;20047;-77
2022/10/20 01:55:15;;;;;;;13.98;6.80;;;6.60;99.90;;;;;;4941228;29;20046;-77
2022/10/20 01:57:57;;;;;;;12.63;6.80;;;6.50;99.90;;;;;;4939963;29;20179;-77
2022/10/20 02:00:23;;;;;;;12.15;7.05;;;6.50;99.90;;;;;;4941372;29;20513;-77
2022/10/20 02:03:17;;;;;;;11.20;6.50;;;6.40;99.90;;;;;;4929062;29;20047;-77
2022/10/20 02:06:09;;;;;;;11.23;6.50;;;6.40;99.90;;;;;;4940830;29;20039;-77
2022/10/20 02:08:41;;;;;;;;;;;6.50;99.90;;;;;;4941401;29;20044;-77
2022/10/20 02:11:13;;;;;;;15.35;7.35;;;6.40;99.90;;;;;;4940746;29;20001;-77
2022/10/20 02:13:40;;;;;;;;;;;6.50;99.90;;;;;;4940939;29;20114;-77
2022/10/20 02:16:15;;;;;;;12.68;6.93;;;6.40;99.90;;;;;;4956209;29;19965;-77
2022/10/20 02:18:42;;;;;;;13.15;6.65;;;6.40;99.90;;;;;;4928123;29;20035;-77
2022/10/20 02:21:09;;;;;;;12.43;7.63;;;6.50;99.90;;;;;;4940698;29;20043;-77
2022/10/20 02:23:38;;;;;;;12.70;6.93;;;6.60;99.90;;;;;;4940503;29;20043;-77
2022/10/20 02:26:11;;;;;;;11.35;7.18;;;6.60;99.90;;;;;;4940630;29;20047;-77
2022/10/20 02:28:41;;;;;;;12.60;7.10;;;6.50;99.90;;;;;;4939782;29;20545;-77
2022/10/20 02:31:07;;;;;;;13.90;7.28;;;6.60;99.90;;;;;;4939984;29;20043;-77
2022/10/20 02:33:34;;;;;;;13.40;7.40;;;6.50;99.90;;;;;;4924085;29;20043;-77
2022/10/20 02:36:04;;;;;;;15.15;7.15;;;6.50;99.90;;;;;;4940330;29;20040;-77
2022/10/20 02:38:30;;;;;;;15.05;8.20;;;6.50;99.90;;;;;;4940274;29;20043;-77
2022/10/20 02:40:55;;;;;;;13.13;7.50;;;6.50;99.90;;;;;;4939883;29;20039;-77
2022/10/20 02:43:21;;;;;;;13.90;7.53;;;6.50;99.90;;;;;;4926043;29;20099;-77
2022/10/20 02:45:47;;;;;;;14.15;7.65;;;6.50;99.90;;;;;;4923915;29;20413;-77
2022/10/20 02:48:13;;;;;;;13.77;7.95;;;6.50;99.90;;;;;;4908667;29;20043;-77
2022/10/20 02:50:38;;;;;;;16.77;8.52;;;6.50;99.90;;;;;;4937897;29;20458;-78
2022/10/20 02:53:04;;;;;;;13.45;8.85;;;6.40;99.90;;;;;;4922182;29;20122;-77
2022/10/20 02:55:30;;;;;;;11.38;8.40;;;6.40;99.90;;;;;;4939843;29;20040;-77
2022/10/20 02:57:56;;;;;;;13.35;8.18;;;6.40;99.90;;;;;;4923744;29;20032;-77
2022/10/20 03:00:23;;;;;;;13.88;8.85;;;6.40;99.90;;;;;;4907234;29;20043;-77
2022/10/20 03:02:48;;;;;;;14.30;9.80;;;6.30;99.90;;;;;;4939344;29;20079;-77
2022/10/20 03:05:15;;;;;;;12.00;7.35;;;6.30;99.90;;;;;;4939733;29;20501;-77
2022/10/20 03:07:40;;;;;;;13.93;8.20;;;6.30;99.90;;;;;;4908046;29;20082;-77
2022/10/20 03:10:07;;;;;;;13.98;9.27;;;6.50;99.90;;;;;;4939792;29;20078;-77
2022/10/20 03:12:33;;;;;;;15.48;9.60;;;6.50;99.90;;;;;;4892533;29;20043;-77
2022/10/20 03:14:59;;;;;;;17.30;9.95;;;6.40;99.90;;;;;;4939996;29;20453;-77
2022/10/20 03:17:24;;;;;;;15.32;9.55;;;6.40;99.90;;;;;;4923118;29;20094;-77
2022/10/20 03:19:50;;;;;;;16.20;9.15;;;6.40;99.90;;;;;;4940000;29;20050;-77
2022/10/20 03:22:16;;;;;;;15.73;9.15;;;6.40;99.90;;;;;;4923127;29;20122;-77
2022/10/20 03:24:42;;;;;;;16.05;9.63;;;6.50;99.90;;;;;;4923790;29;20039;-77
2022/10/20 03:27:07;;;;;;;17.15;10.55;;;6.40;99.90;;;;;;4954649;29;20052;-77
2022/10/20 03:29:33;;;;;;;15.48;9.63;;;6.40;99.90;;;;;;4939410;29;20035;-77
2022/10/20 03:31:59;;;;;;;17.38;10.48;;;6.40;99.90;;;;;;4938779;29;20493;-77
2022/10/20 03:34:24;;;;;;;17.00;10.82;;;6.40;99.90;;;;;;4923401;29;20113;-77
2022/10/20 03:36:50;;;;;;;16.50;10.57;;;6.40;99.90;;;;;;4907617;29;20097;-77
2022/10/20 03:39:16;;;;;;;14.60;10.50;;;6.40;99.90;;;;;;4923188;29;20047;-77
2022/10/20 03:41:41;;;;;;;17.95;11.32;;;6.40;99.90;;;;;;4922864;29;20090;-77
2022/10/20 03:44:09;;;;;;;17.05;11.75;;;6.40;99.90;;;;;;4938853;29;20051;-77
2022/10/20 03:46:34;;;;;;;18.65;11.60;;;6.30;99.90;;;;;;4927354;29;20038;-78
2022/10/20 03:49:00;;;;;;;15.88;11.50;;;6.30;99.90;;;;;;4938939;29;20042;-77
2022/10/20 03:51:26;;;;;;;16.15;10.93;;;6.70;99.90;;;;;;4907350;29;20054;-77
2022/10/20 03:53:51;;;;;;;16.58;11.65;;;6.30;99.90;;;;;;4922673;29;20560;-77
2022/10/20 03:56:19;;;;;;;17.15;11.77;;;6.30;99.90;;;;;;4954853;29;20066;-77
2022/10/20 03:58:46;;;;;;;16.52;10.75;;;6.30;99.90;;;;;;4922734;29;20050;-77
2022/10/20 04:01:17;;;;;;;19.10;12.40;;;6.30;99.90;;;;;;4922585;29;20043;-77
2022/10/20 04:03:43;;;;;;;15.90;11.98;;;6.30;99.90;;;;;;4938762;29;20043;-77
2022/10/20 04:06:11;;;;;;;18.85;12.57;;;6.30;99.90;;;;;;4954702;28;20102;-77
2022/10/20 04:08:37;;;;;;;18.20;11.98;;;6.30;99.90;;;;;;4938627;29;20043;-77
2022/10/20 04:11:03;;;;;;;18.58;12.10;;;6.30;99.90;;;;;;4922516;29;20549;-77
2022/10/20 04:13:28;;;;;;;16.08;12.50;;;6.30;99.90;;;;;;4922457;29;20126;-77
2022/10/20 04:15:54;;;;;;;18.02;13.32;;;6.20;99.90;;;;;;4922268;29;20130;-77
2022/10/20 04:18:20;;;;;;;16.90;12.70;;;6.30;99.90;;;;;;4922506;29;20045;-77
2022/10/20 04:20:47;;;;;;;17.42;13.02;;;6.20;99.90;;;;;;4938336;29;20126;-77
2022/10/20 04:23:13;;;;;;;18.92;13.00;;;6.20;99.90;;;;;;4938489;29;20038;-77
2022/10/20 04:25:46;;;;;;;18.60;14.15;;;6.20;99.90;;;;;;4938219;29;20102;-78
2022/10/20 04:28:16;;;;;;;22.23;14.52;;;6.20;99.90;;;;;;4937679;29;20126;-77
2022/10/20 04:30:42;;;;;;;20.92;14.77;;;6.20;99.90;;;;;;4922148;29;20042;-77
2022/10/20 04:33:08;;;;;;;20.17;14.20;;;6.20;99.90;;;;;;4938349;29;20043;-77
2022/10/20 04:35:34;;;;;;;20.05;14.27;;;6.20;99.90;;;;;;4922225;29;20548;-77
2022/10/20 04:38:00;;;;;;;19.88;14.20;;;6.20;99.90;;;;;;4930023;29;20035;-78
2022/10/20 04:40:26;;;;;;;20.90;16.25;;;6.20;99.90;;;;;;4937867;29;20031;-77
2022/10/20 04:42:51;;;;;;;19.33;13.90;;;6.30;99.90;;;;;;4934462;29;20498;-76
2022/10/20 04:45:17;;;;;;;23.15;15.63;;;6.20;99.90;;;;;;4918762;29;20051;-77
2022/10/20 04:47:43;;;;;;;18.27;13.93;;;6.20;99.90;;;;;;4922108;29;20070;-76
2022/10/20 04:50:09;;;;;;;17.13;14.48;;;6.20;99.90;;;;;;4906714;29;20039;-76
2022/10/20 04:52:34;;;;;;;18.30;15.23;;;6.20;99.90;;;;;;4936789;29;20047;-76
2022/10/20 04:55:00;;;;;;;20.17;16.00;;;6.20;99.90;;;;;;4936094;29;20054;-77
2022/10/20 04:57:26;;;;;;;18.48;13.80;;;6.20;99.90;;;;;;4935686;29;20486;-77
2022/10/20 04:59:51;;;;;;;22.88;14.65;;;6.20;99.90;;;;;;4937396;29;20043;-77
2022/10/20 05:02:17;;;;;;;20.27;16.05;;;6.20;99.90;;;;;;4919528;29;20039;-76
2022/10/20 05:04:43;;;;;;;21.38;16.10;;;6.10;99.90;;;;;;4936900;29;20039;-77
2022/10/20 05:07:09;;;;;;;20.17;15.10;;;6.10;99.90;;;;;;4936799;29;20458;-76
2022/10/20 05:09:35;;;;;;;19.20;15.63;;;6.10;99.90;;;;;;4921580;29;20075;-77
2022/10/20 05:12:00;;;;;;;19.15;15.55;;;6.10;99.90;;;;;;4921608;29;20501;-77
2022/10/20 05:14:26;;;;;;;20.63;16.30;;;6.10;99.90;;;;;;4936989;29;20512;-76
2022/10/20 05:16:52;;;;;;;22.75;16.27;;;6.10;99.90;;;;;;4904603;29;20565;-78
2022/10/20 05:19:18;;;;;;;21.20;16.48;;;6.10;99.90;;;;;;4937144;29;20090;-78
2022/10/20 05:21:44;;;;;;;19.08;15.05;;;6.40;99.90;;;;;;4913626;29;20043;-81
2022/10/20 05:24:17;;;;;;;27.60;16.42;;;6.20;99.90;;;;;;4921438;29;20128;-79
2022/10/20 05:26:42;;;;;;;20.33;15.57;;;6.20;99.90;;;;;;4919980;29;20113;-79
2022/10/20 05:29:10;;;;;;;22.25;17.38;;;6.20;99.90;;;;;;4936686;29;20047;-79
2022/10/20 05:31:38;;;;;;;22.50;17.40;;;6.20;99.90;;;;;;4935493;29;20187;-79
2022/10/20 05:34:04;;;;;;;19.88;16.73;;;6.30;99.90;;;;;;4919369;29;20035;-79
2022/10/20 05:36:29;;;;;;;21.88;17.30;;;6.30;99.90;;;;;;4935203;29;20054;-79
2022/10/20 05:38:55;;;;;;;24.52;18.23;;;6.20;99.90;;;;;;4920762;29;20047;-79
2022/10/20 05:41:29;;;;;;;21.52;17.73;;;6.20;99.90;;;;;;4937022;29;20485;-79
2022/10/20 05:43:58;;;;;;;21.02;15.93;;;6.20;99.90;;;;;;4942044;29;20075;-79
2022/10/20 05:46:26;;;;;;;22.95;16.90;;;6.20;99.90;;;;;;4936478;29;20035;-79
2022/10/20 05:48:54;;;;;;;24.20;17.70;;;6.30;99.90;;;;;;4937071;29;20043;-79
2022/10/20 05:51:23;;;;;;;24.02;16.80;;;6.20;99.90;;;;;;4937056;29;20053;-79
2022/10/20 05:53:50;;;;;;;23.70;17.98;;;6.20;99.90;;;;;;4936858;29;20047;-78
2022/10/20 05:56:18;;;;;;;23.80;17.58;;;6.20;99.90;;;;;;4935150;29;20102;-79
2022/10/20 05:58:44;;;;;;;22.23;17.55;;;6.30;99.90;;;;;;4926989;29;20095;-79
2022/10/20 06:01:25;;;;;;;21.98;17.70;;;6.20;99.90;;;;;;4948451;28;20154;-79
2022/10/20 06:03:53;;;;;;;21.05;17.58;;;6.30;99.90;;;;;;4907111;29;20047;-79
2022/10/20 06:06:22;;;;;;;23.38;18.00;;;6.20;99.90;;;;;;4949842;28;20486;-79
2022/10/20 06:08:49;;;;;;;23.95;18.38;;;6.20;99.90;;;;;;4921523;29;20498;-79
2022/10/20 06:11:16;;;;;;;23.98;18.77;;;6.30;99.90;;;;;;4950546;28;20057;-79
2022/10/20 06:13:42;;;;;;;22.65;18.20;;;6.20;99.90;;;;;;4916717;29;20487;-79
2022/10/20 06:16:13;;;;;;;25.35;18.83;;;6.20;99.90;;;;;;4926719;29;20051;-79
2022/10/20 06:18:41;;;;;;;23.58;17.83;;;6.20;99.90;;;;;;4935113;29;20420;-79
2022/10/20 06:21:12;;;;;;;22.55;18.08;;;6.20;99.90;;;;;;4936224;29;20043;-79
2022/10/20 06:23:39;;;;;;;22.08;17.60;;;6.30;99.90;;;;;;4936368;29;20046;-79
2022/10/20 06:26:16;;;;;;;22.10;17.70;;;6.20;99.90;;;;;;4929282;29;20043;-79
2022/10/20 06:28:42;;;;;;;24.77;17.63;;;6.30;99.90;;;;;;4920040;29;20085;-79
2022/10/20 06:31:23;;;;;;;21.73;17.20;;;6.40;99.90;;;;;;4917961;29;20091;-79
2022/10/20 06:33:49;;;;;;;21.50;17.42;;;6.30;99.90;;;;;;4949610;28;20417;-79
2022/10/20 06:36:16;;;;;;;24.75;18.25;;;6.30;99.90;;;;;;4937264;29;20495;-79
2022/10/20 06:38:43;;;;;;;25.60;19.60;;;6.30;99.90;;;;;;4921595;29;20098;-79
2022/10/20 06:41:14;;;;;;;24.08;18.13;;;6.30;99.90;;;;;;4921289;29;20255;-79
2022/10/20 06:43:40;;;;;;;19.50;14.18;;;6.40;99.90;;;;;;4931193;29;20506;-79
2022/10/20 06:46:09;;;;;;;24.48;18.88;;;6.70;99.90;;;;;;4933926;29;20046;-79
2022/10/20 06:48:35;;;;;;;24.10;19.02;;;6.40;99.90;;;;;;4942692;29;20062;-79
2022/10/20 06:51:07;;;;;;;22.35;18.00;;;6.40;99.90;;;;;;4935158;29;20039;-79
2022/10/20 06:53:35;;;;;;;23.60;18.65;;;6.40;99.90;;;;;;4908640;28;20047;-79
2022/10/20 06:56:10;;;;;;;24.77;18.75;;;6.40;99.90;;;;;;4947259;28;20047;-79
2022/10/20 06:58:38;;;;;;;22.60;18.60;;;6.40;99.90;;;;;;4958525;28;20046;-79
2022/10/20 07:01:27;;;;;;;24.08;19.10;;;6.40;99.90;;;;;;4947019;28;20045;-79
2022/10/20 07:03:56;;;;;;;22.85;17.65;;;6.50;99.90;;;;;;4955995;28;20031;-79
2022/10/20 07:06:43;;;;;;;23.13;17.92;;;6.50;99.90;;;;;;4954741;28;20046;-79
2022/10/20 07:09:14;;;;;;;25.55;19.38;;;6.50;99.90;;;;;;4967051;28;20141;-79
2022/10/20 07:11:40;;;;;;;24.38;18.83;;;6.70;99.90;;;;;;4954915;28;20035;-79
2022/10/20 07:14:06;;;;;;;24.55;18.88;;;6.70;99.90;;;;;;4954279;28;20045;-79
2022/10/20 07:16:33;;;;;;;24.10;18.92;;;6.70;99.90;;;;;;4939207;28;20046;-79
2022/10/20 07:19:00;;;;;;;22.77;18.48;;;6.70;99.90;;;;;;4951601;28;20133;-79
2022/10/20 07:21:27;;;;;;;21.27;16.23;;;6.80;99.90;;;;;;4929873;28;20528;-79
2022/10/20 07:23:55;;;;;;;22.27;18.27;;;6.90;99.90;;;;;;4955789;28;20045;-79
2022/10/20 07:26:26;;;;;;;24.95;18.75;;;7.40;99.90;;;;;;4952848;28;20570;-79
2022/10/20 07:28:55;;;;;;;22.05;17.58;;;7.00;99.90;;;;;;4967221;28;20085;-79
2022/10/20 07:31:30;;;;;;;23.90;18.30;;;7.00;99.90;;;;;;4968083;28;20055;-79
2022/10/20 07:33:58;;;;;;;22.88;18.20;;;7.10;99.90;;;;;;4952011;28;20490;-79
2022/10/20 07:36:29;;;;;;;20.30;16.27;;;7.10;99.90;;;;;;4923769;28;20046;-79
2022/10/20 07:38:57;;;;;;;19.55;16.42;;;7.10;99.90;;;;;;4969916;28;20038;-79
2022/10/20 07:41:24;;;;;;;20.90;16.85;;;7.20;99.90;;;;;;4949853;28;20528;-79
2022/10/20 07:43:50;;;;;;;19.17;16.27;;;7.30;99.90;;;;;;4937112;28;20043;-79
2022/10/20 07:46:16;;;;;;;22.38;16.80;;;7.30;99.90;;;;;;4952219;28;20046;-79
2022/10/20 07:48:42;;;;;;;20.70;16.60;;;7.40;99.90;;;;;;4956032;28;20065;-79
2022/10/20 07:51:27;;;;;;;19.50;15.98;;;7.40;99.90;;;;;;4953300;28;20058;-79
2022/10/20 07:53:56;;;;;;;21.20;16.08;;;7.50;99.90;;;;;;4960992;28;20090;-79
2022/10/20 07:56:22;;;;;;;21.98;16.13;;;7.60;99.90;;;;;;4953086;28;20043;-79
2022/10/20 07:58:48;;;;;;;23.17;16.58;;;7.60;99.90;;;;;;4954330;28;20043;-79
2022/10/20 08:01:14;;;;;;;20.80;15.80;;;7.60;99.90;;;;;;4954384;28;20046;-79
2022/10/20 08:03:40;;;;;;;18.10;15.05;;;7.70;99.90;;;;;;4923890;28;20041;-79
2022/10/20 08:06:05;;;;;;;19.13;14.50;;;7.80;99.90;;;;;;4923678;28;20042;-79
2022/10/20 08:08:32;;;;;;;19.33;14.85;;;8.00;99.90;;;;;;4960770;28;20046;-79
2022/10/20 08:10:58;;;;;;;16.15;13.52;;;8.00;99.90;;;;;;4961480;28;20486;-79
2022/10/20 08:13:25;;;;;;;19.38;14.30;;;8.00;99.90;;;;;;4952198;28;20039;-79
2022/10/20 08:15:51;;;;;;;17.48;12.45;;;8.20;99.90;;;;;;4955181;28;20126;-79
2022/10/20 08:18:16;;;;;;;17.67;11.30;;;8.20;99.90;;;;;;4923016;28;20114;-79
2022/10/20 08:20:43;;;;;;;16.98;12.15;;;8.30;99.90;;;;;;4954972;28;20039;-79
2022/10/20 08:23:09;;;;;;;15.43;13.73;;;8.40;99.90;;;;;;4954344;28;20494;-79
2022/10/20 08:25:35;;;;;;;17.42;13.20;;;8.50;99.90;;;;;;4937774;28;20057;-79
2022/10/20 08:28:01;;;;;;;16.02;12.02;;;8.50;99.90;;;;;;4935196;28;20039;-79
2022/10/20 08:30:27;;;;;;;13.73;10.48;;;8.60;99.90;;;;;;4950202;28;20513;-79
2022/10/20 08:32:53;;;;;;;14.63;12.07;;;8.60;99.90;;;;;;4953558;28;20034;-79
2022/10/20 08:35:19;;;;;;;16.45;13.30;;;8.70;99.90;;;;;;4949279;28;20043;-79
2022/10/20 08:37:45;;;;;;;16.08;12.25;;;8.70;99.90;;;;;;4963899;28;20516;-79
2022/10/20 08:40:21;;;;;;;15.45;12.95;;;8.90;99.90;;;;;;4938701;28;20047;-79
2022/10/20 08:42:48;;;;;;;17.42;12.15;;;8.80;99.90;;;;;;4953054;28;20046;-79
2022/10/20 08:45:19;;;;;;;13.77;11.30;;;8.90;99.90;;;;;;4962699;28;20097;-79
2022/10/20 08:47:48;;;;;;;14.85;12.50;;;9.00;99.90;;;;;;4948441;28;20109;-79
2022/10/20 08:50:16;;;;;;;15.60;10.98;;;9.10;99.90;;;;;;4954863;28;20054;-79
2022/10/20 08:52:43;;;;;;;16.30;11.80;;;9.10;99.90;;;;;;4948373;28;20059;-79
2022/10/20 08:55:26;;;;;;;15.27;11.68;;;9.20;99.90;;;;;;4951238;28;20060;-79
2022/10/20 08:58:04;;;;;;;16.35;11.27;;;9.40;99.90;;;;;;4949533;28;20038;-79
2022/10/20 09:00:31;;;;;;;15.35;11.10;;;9.40;99.90;;;;;;4935468;28;20095;-79
2022/10/20 09:03:09;;;;;;;15.40;11.73;;;9.50;99.90;;;;;;4937346;28;20121;-79
2022/10/20 09:05:37;;;;;;;12.82;10.90;;;9.60;99.90;;;;;;4948002;28;20083;-79
2022/10/20 09:08:02;;;;;;;15.52;10.35;;;9.80;99.90;;;;;;4950246;28;20035;-79
2022/10/20 09:10:38;;;;;;;14.77;11.95;;;9.90;99.90;;;;;;4923975;28;20047;-79
2022/10/20 09:13:22;;;;;;;13.23;10.80;;;9.90;99.90;;;;;;4951923;28;20145;-79
2022/10/20 09:15:56;;;;;;;13.85;10.60;;;10.00;99.90;;;;;;4938742;28;20089;-79
2022/10/20 09:18:22;;;;;;;14.20;11.18;;;10.10;99.90;;;;;;4945583;28;20035;-80
2022/10/20 09:20:53;;;;;;;14.18;9.43;;;10.10;99.90;;;;;;4938748;28;20512;-79
2022/10/20 09:23:24;;;;;;;14.95;10.27;;;10.10;99.90;;;;;;4937876;28;20050;-80
2022/10/20 09:25:51;;;;;;;12.27;8.52;;;10.10;99.90;;;;;;4938164;28;20094;-80
2022/10/20 09:28:22;;;;;;;14.15;10.27;;;10.20;99.90;;;;;;4938652;28;20039;-80
2022/10/20 09:30:48;;;;;;;14.27;10.18;;;10.10;99.90;;;;;;4950733;28;20038;-79
2022/10/20 09:33:30;;;;;;;14.30;10.57;;;10.20;99.90;;;;;;4926002;28;20167;-80
2022/10/20 09:36:17;;;;;;;12.63;9.60;;;10.20;99.90;;;;;;4968152;28;20046;-80
2022/10/20 09:38:46;;;;;;;13.70;10.57;;;10.20;99.90;;;;;;4953232;28;20114;-79
2022/10/20 09:41:22;;;;;;;12.70;10.50;;;10.30;99.90;;;;;;4948182;28;20565;-79
2022/10/20 09:44:22;;;;;;;13.45;10.82;;;10.40;99.90;;;;;;4940093;28;20138;-79
2022/10/20 09:46:50;;;;;;;14.10;9.93;;;10.40;99.90;;;;;;4950104;28;20109;-79
2022/10/20 09:49:36;;;;;;;14.32;10.07;;;10.50;99.90;;;;;;4949584;28;20061;-79
2022/10/20 09:52:13;;;;;;;12.30;9.65;;;10.50;99.90;;;;;;4948569;28;20046;-79
2022/10/20 09:54:38;;;;;;;13.90;9.35;;;10.50;99.90;;;;;;4947181;28;20047;-79
2022/10/20 09:57:07;;;;;;;12.52;10.52;;;10.60;99.90;;;;;;4962139;28;20045;-79
2022/10/20 09:59:37;;;;;;;13.45;10.75;;;10.70;99.90;;;;;;4959498;28;20159;-79
2022/10/20 10:02:14;;;;;;;12.00;10.25;;;10.80;99.90;;;;;;4947555;28;20038;-79
2022/10/20 10:04:43;;;;;;;12.38;9.73;;;10.90;99.90;;;;;;4965026;28;20047;-79
2022/10/20 10:07:21;;;;;;;12.75;9.40;;;10.90;99.90;;;;;;4947541;28;20556;-79
2022/10/20 10:09:57;;;;;;;12.30;9.25;;;11.10;99.90;;;;;;4959706;28;20035;-79
2022/10/20 10:12:25;;;;;;;13.43;9.20;;;11.10;99.90;;;;;;4955042;28;20490;-79
2022/10/20 10:14:57;;;;;;;11.25;9.63;;;11.30;99.90;;;;;;4955888;28;20508;-79
2022/10/20 10:17:36;;;;;;;11.35;7.07;;;11.40;99.90;;;;;;4956249;28;20062;-78
2022/10/20 10:20:12;;;;;;;13.63;8.55;;;11.40;99.90;;;;;;4934913;28;20097;-78
2022/10/20 10:22:39;;;;;;;12.07;8.60;;;11.40;99.90;;;;;;4949427;28;20039;-78
2022/10/20 10:25:11;;;;;;;11.68;8.07;;;11.50;99.90;;;;;;4955334;28;20050;-79
2022/10/20 10:27:37;;;;;;;11.70;8.30;;;11.50;99.90;;;;;;4934129;28;20043;-78
2022/10/20 10:30:28;;;;;;;11.63;8.80;;;11.50;99.90;;;;;;4922341;28;20101;-78
2022/10/20 10:32:54;;;;;;;12.00;8.48;;;11.50;99.90;;;;;;4965488;28;20077;-78
2022/10/20 10:35:41;;;;;;;11.98;8.23;;;11.50;99.90;;;;;;4966346;28;20119;-78
2022/10/20 10:38:11;;;;;;;11.82;8.35;;;11.70;99.90;;;;;;4954503;28;20129;-78
2022/10/20 10:40:37;;;;;;;10.93;8.40;;;12.00;99.90;;;;;;4953402;28;20564;-79
2022/10/20 10:43:30;;;;;;;10.25;8.00;;;12.20;99.90;;;;;;4971563;28;20181;-78
2022/10/20 10:46:07;;;;;;;12.88;8.00;;;12.40;99.90;;;;;;4955226;28;20089;-78
2022/10/20 10:48:51;;;;;;;10.52;8.00;;;12.50;99.90;;;;;;4939387;28;20097;-78
2022/10/20 10:51:29;;;;;;;11.35;7.43;;;12.50;99.90;;;;;;4953844;28;20062;-78
2022/10/20 10:54:09;;;;;;;10.73;8.82;;;12.60;99.90;;;;;;4951497;28;20050;-78
2022/10/20 10:56:48;;;;;;;11.65;8.00;;;12.60;99.90;;;;;;4967080;28;20520;-78
2022/10/20 10:59:22;;;;;;;11.02;8.23;;;12.70;99.90;;;;;;4953395;28;20030;-78
2022/10/20 11:01:56;;;;;;;12.77;8.40;;;12.80;99.90;;;;;;4967053;28;20481;-78
2022/10/20 11:04:40;;;;;;;11.25;8.02;;;12.80;99.90;;;;;;4956239;28;20066;-78
2022/10/20 11:07:30;;;;;;;12.02;8.52;;;12.80;99.90;;;;;;4950972;28;20126;-78
2022/10/20 11:10:37;;;;;;;11.90;8.52;;;12.70;99.90;;;;;;4967621;28;20066;-78
2022/10/20 11:13:37;;;;;;;10.63;8.35;;;12.70;99.90;;;;;;4952772;28;20038;-78
2022/10/20 11:16:41;;;;;;;13.27;8.95;;;12.80;99.90;;;;;;4952705;28;20035;-78
2022/10/20 11:19:18;;;;;;;11.57;8.95;;;12.80;99.90;;;;;;4949119;28;20486;-78
2022/10/20 11:21:52;;;;;;;12.68;7.70;;;12.90;99.90;;;;;;4944631;28;20552;-78
2022/10/20 11:24:39;;;;;;;10.35;8.13;;;13.00;99.90;;;;;;4965310;28;20042;-78
2022/10/20 11:27:24;;;;;;;12.48;8.38;;;13.10;99.90;;;;;;4946862;28;20043;-79
2022/10/20 11:30:04;;;;;;;10.70;7.82;;;13.20;99.90;;;;;;4946612;28;20046;-78
2022/10/20 11:32:43;;;;;;;11.98;8.32;;;13.30;99.90;;;;;;4937177;28;20066;-78
2022/10/20 11:35:30;;;;;;;11.55;8.13;;;13.20;99.90;;;;;;4950277;28;20046;-78
2022/10/20 11:38:16;;;;;;;10.82;8.45;;;13.20;99.90;;;;;;4953688;28;20165;-78
2022/10/20 11:40:54;;;;;;;11.55;9.25;;;13.20;99.90;;;;;;4935572;28;20521;-78
2022/10/20 11:43:45;;;;;;;14.85;9.40;;;13.10;99.90;;;;;;4951977;28;20409;-78
2022/10/20 11:46:21;;;;;;;11.25;8.27;;;13.10;99.90;;;;;;4938379;28;20042;-78
2022/10/20 11:48:52;;;;;;;13.20;8.90;;;13.10;99.90;;;;;;4944893;28;20047;-78
2022/10/20 11:51:50;;;;;;;12.52;9.40;;;13.20;99.90;;;;;;4952911;28;20142;-78
2022/10/20 11:55:08;;;;;;;12.20;8.52;;;13.30;99.90;;;;;;4943807;28;20812;-78
2022/10/20 11:57:51;;;;;;;11.93;8.88;;;13.30;99.90;;;;;;4893915;29;20108;-78
2022/10/20 12:00:25;;;;;;;12.85;9.95;;;13.30;99.90;;;;;;4881349;29;20058;-78
2022/10/20 12:03:42;;;;;;;12.32;8.57;;;13.40;99.90;;;;;;4934257;28;20043;-78
2022/10/20 12:06:33;;;;;;;12.18;8.75;;;13.30;99.90;;;;;;4901285;28;20061;-78
2022/10/20 12:09:17;;;;;;;11.98;9.68;;;13.30;99.90;;;;;;4946790;28;20038;-78
2022/10/20 12:12:07;;;;;;;13.15;9.73;;;13.30;99.90;;;;;;4964239;28;20122;-78
2022/10/20 12:14:38;;;;;;;13.60;9.50;;;13.30;99.90;;;;;;4949141;28;20043;-78
2022/10/20 12:17:24;;;;;;;12.15;9.45;;;13.20;99.90;;;;;;4946074;28;20046;-78
2022/10/20 12:19:50;;;;;;;12.73;9.57;;;13.30;99.90;;;;;;4964315;28;20031;-78
2022/10/20 12:22:16;;;;;;;13.25;9.55;;;13.20;99.90;;;;;;4919133;28;20071;-78
2022/10/20 12:25:02;;;;;;;12.55;10.00;;;13.20;99.90;;;;;;4949616;28;20490;-78
2022/10/20 12:27:28;;;;;;;14.48;9.73;;;13.10;99.90;;;;;;4933701;28;20042;-78
2022/10/20 12:30:01;;;;;;;11.85;8.57;;;13.10;99.90;;;;;;4931256;28;20050;-78
2022/10/20 12:32:26;;;;;;;12.20;9.25;;;13.10;99.90;;;;;;4952007;28;20058;-78
2022/10/20 12:35:09;;;;;;;12.52;10.00;;;13.10;99.90;;;;;;4969470;28;20039;-78
2022/10/20 12:37:36;;;;;;;12.77;10.13;;;13.00;99.90;;;;;;4950078;28;20047;-78
2022/10/20 12:40:05;;;;;;;13.85;9.75;;;13.00;99.90;;;;;;4938426;28;20089;-78
2022/10/20 12:42:36;;;;;;;17.27;10.13;;;13.00;99.90;;;;;;4947434;28;20368;-78
2022/10/20 12:45:22;;;;;;;14.60;10.30;;;13.00;99.90;;;;;;4952094;28;20047;-78
2022/10/20 12:47:53;;;;;;;15.65;10.40;;;13.00;99.90;;;;;;4951307;28;20042;-78
2022/10/20 12:50:28;;;;;;;13.65;10.65;;;12.90;99.90;;;;;;4950756;28;20702;-78
2022/10/20 12:52:56;;;;;;;15.82;11.07;;;12.90;99.90;;;;;;4943753;28;20097;-78
2022/10/20 12:55:34;;;;;;;15.23;11.80;;;12.90;99.90;;;;;;4937104;28;20046;-78
2022/10/20 12:58:15;;;;;;;15.48;11.57;;;12.80;99.90;;;;;;4968894;28;20034;-78
2022/10/20 13:00:50;;;;;;;14.02;11.85;;;12.80;99.90;;;;;;4931242;28;20506;-78
2022/10/20 13:03:36;;;;;;;14.15;11.90;;;12.70;99.90;;;;;;4947978;28;20047;-78